Time;durP1;ratioP1;P1;durP2;ratioP2;P2;SDS_P1;SDS_P2;PMS_P1;PMS_P2;Temp;Humidity;BMP_temperature;BMP_pressure;BME280_temperature;BME280_humidity;BME280_pressure;Samples;Min_cycle;Max_cycle;Signal;HPM_P1;HPM_P2
2021/10/07 00:01:03;;;;;;;;;;;;;;;20.05;63.34;102236.00;7283192;19;151642;-52
2021/10/07 00:03:49;;;;;;;;;;;;;;;20.06;62.96;102241.34;7284397;19;153149;-51
2021/10/07 00:06:16;;;;;;;;;;;;;;;20.06;63.44;102241.34;7283978;19;153803;-51
2021/10/07 00:08:43;;;;;;;;;;;;;;;20.06;63.06;102243.31;7283185;19;151924;-52
2021/10/07 00:11:12;;;;;;;;;;;;;;;20.05;63.06;102245.28;7284718;19;152926;-51
2021/10/07 00:13:39;;;;;;;;;;;;;;;20.06;63.82;102235.75;7289008;19;154589;-52
2021/10/07 00:16:08;;;;;;;;;;;;;;;20.05;63.87;102238.81;7284213;19;152651;-51
2021/10/07 00:18:38;;;;;;;;;;;;;;;20.05;63.47;102236.84;7283261;19;154018;-52
2021/10/07 00:21:05;;;;;;;;;;;;;;;20.06;63.63;102244.16;7282542;19;151922;-52
2021/10/07 00:23:40;;;;;;;;;;;;;;;20.08;63.95;102246.69;7284057;19;153777;-52
2021/10/07 00:26:08;;;;;;;;;;;;;;;20.05;63.65;102245.28;7284123;19;153258;-51
2021/10/07 00:28:35;;;;;;;;;;;;;;;20.05;64.07;102236.00;7282706;19;152090;-52
2021/10/07 00:31:04;;;;;;;;;;;;;;;20.04;63.84;102232.34;7284124;19;151865;-51
2021/10/07 00:41:01;;;;;;;;;;;;;;;20.04;64.09;102231.50;7286353;19;151442;-51
2021/10/07 00:43:29;;;;;;;;;;;;;;;20.02;64.23;102223.38;7287542;19;153357;-51
2021/10/07 00:45:56;;;;;;;;;;;;;;;20.04;64.49;102239.91;7287833;19;154102;-51
2021/10/07 00:48:24;;;;;;;;;;;;;;;20.02;64.12;102240.22;7287807;19;152020;-51
2021/10/07 00:50:51;;;;;;;;;;;;;;;20.02;64.33;102243.03;7290709;19;152789;-51
2021/10/07 00:53:18;;;;;;;;;;;;;;;20.01;64.21;102237.69;7286975;19;153849;-51
2021/10/07 00:55:46;;;;;;;;;;;;;;;20.01;64.10;102230.09;7288531;19;151702;-51
2021/10/07 00:58:14;;;;;;;;;;;;;;;20.03;64.39;102238.25;7296942;19;152763;-51
2021/10/07 01:00:42;;;;;;;;;;;;;;;20.02;64.63;102230.94;7287122;19;151714;-52
2021/10/07 01:03:12;;;;;;;;;;;;;;;20.03;64.41;102227.03;7290392;19;151823;-52
2021/10/07 01:05:39;;;;;;;;;;;;;;;20.00;64.85;102228.41;7287763;19;153704;-51
2021/10/07 01:08:07;;;;;;;;;;;;;;;20.01;64.80;102224.50;7288935;19;152147;-52
2021/10/07 01:10:34;;;;;;;;;;;;;;;19.99;65.05;102219.16;7287637;19;151700;-52
2021/10/07 01:13:02;;;;;;;;;;;;;;;20.00;64.82;102225.59;7288940;19;153380;-52
2021/10/07 01:15:29;;;;;;;;;;;;;;;19.98;65.02;102231.50;7289783;19;152008;-52
2021/10/07 01:17:56;;;;;;;;;;;;;;;19.98;65.30;102234.31;7290785;19;152898;-52
2021/10/07 01:20:23;;;;;;;;;;;;;;;19.96;65.23;102233.72;7295428;19;153299;-51
2021/10/07 01:22:50;;;;;;;;;;;;;;;19.99;65.37;102232.31;7284387;19;153868;-51
2021/10/07 01:25:17;;;;;;;;;;;;;;;19.97;65.48;102235.44;7286002;19;151807;-51
2021/10/07 01:27:51;;;;;;;;;;;;;;;20.02;65.44;102233.75;7288170;19;152149;-52
2021/10/07 01:30:18;;;;;;;;;;;;;;;19.98;65.42;102239.94;7289719;19;153346;-52
2021/10/07 01:32:45;;;;;;;;;;;;;;;19.99;65.53;102244.41;7287822;19;153612;-52
2021/10/07 01:35:13;;;;;;;;;;;;;;;19.98;65.80;102242.72;7286605;19;151843;-51
2021/10/07 01:37:40;;;;;;;;;;;;;;;19.98;65.64;102236.28;7287618;19;152780;-52
2021/10/07 01:40:08;;;;;;;;;;;;;;;19.98;65.71;102242.72;7285276;19;154244;-51
2021/10/07 01:42:37;;;;;;;;;;;;;;;19.97;65.55;102243.84;7293444;19;151821;-52
2021/10/07 01:45:04;;;;;;;;;;;;;;;19.96;66.03;102239.34;7287229;19;154137;-52
2021/10/07 01:47:31;;;;;;;;;;;;;;;19.95;65.99;102243.25;7288393;19;152074;-52
2021/10/07 01:49:58;;;;;;;;;;;;;;;19.95;66.23;102236.78;7288619;19;152888;-52
2021/10/07 01:52:25;;;;;;;;;;;;;;;19.95;65.58;102242.41;7287545;19;152704;-52
2021/10/07 01:54:52;;;;;;;;;;;;;;;19.95;65.65;102239.59;7288124;19;151799;-51
2021/10/07 01:57:19;;;;;;;;;;;;;;;19.92;65.73;102228.94;7287533;19;153141;-51
2021/10/07 01:59:46;;;;;;;;;;;;;;;19.93;66.08;102234.28;7286552;19;153944;-52
2021/10/07 02:02:13;;;;;;;;;;;;;;;19.93;66.23;102222.22;7293033;19;151810;-52
2021/10/07 02:04:40;;;;;;;;;;;;;;;19.93;66.01;102217.47;7286410;19;153859;-52
2021/10/07 02:07:07;;;;;;;;;;;;;;;19.95;66.24;102217.16;7285917;19;151752;-51
2021/10/07 02:09:34;;;;;;;;;;;;;;;19.97;65.80;102212.97;7288038;19;151754;-52
2021/10/07 02:12:01;;;;;;;;;;;;;;;19.95;66.32;102214.34;7285325;19;153340;-52
2021/10/07 02:14:28;;;;;;;;;;;;;;;19.95;66.37;102220.81;7287497;19;152349;-52
2021/10/07 02:16:56;;;;;;;;;;;;;;;19.97;66.11;102215.78;7287876;19;152690;-51
2021/10/07 02:19:23;;;;;;;;;;;;;;;19.95;66.54;102225.56;7286729;19;154199;-51
2021/10/07 02:21:50;;;;;;;;;;;;;;;19.94;66.74;102218.31;7286886;19;152398;-51
2021/10/07 02:24:17;;;;;;;;;;;;;;;19.94;66.50;102224.72;7292196;19;151559;-52
2021/10/07 02:26:45;;;;;;;;;;;;;;;19.94;66.70;102221.94;7285392;19;152416;-51
2021/10/07 02:29:12;;;;;;;;;;;;;;;19.93;66.87;102211.84;7287064;19;152882;-51
2021/10/07 02:31:38;;;;;;;;;;;;;;;19.93;66.97;102223.06;7285089;19;153738;-52
2021/10/07 02:34:06;;;;;;;;;;;;;;;19.93;67.18;102216.63;7287810;19;152357;-51
2021/10/07 02:36:33;;;;;;;;;;;;;;;19.93;67.28;102219.41;7286021;19;153305;-52
2021/10/07 02:39:00;;;;;;;;;;;;;;;19.94;67.34;102218.31;7285701;19;153376;-52
2021/10/07 02:41:27;;;;;;;;;;;;;;;19.93;67.34;102213.81;7286310;19;152547;-52
2021/10/07 02:43:54;;;;;;;;;;;;;;;19.92;67.65;102221.38;7286874;19;153301;-52
2021/10/07 02:46:21;;;;;;;;;;;;;;;19.94;67.56;102223.91;7293729;19;152359;-52
2021/10/07 02:48:49;;;;;;;;;;;;;;;19.94;67.53;102213.50;7287074;19;152655;-52
2021/10/07 02:51:16;;;;;;;;;;;;;;;19.93;67.92;102222.22;7285684;19;154085;-51
2021/10/07 02:53:43;;;;;;;;;;;;;;;19.92;68.31;102218.56;7285849;19;152488;-52
2021/10/07 02:56:10;;;;;;;;;;;;;;;19.95;68.58;102228.38;7287314;19;153609;-51
2021/10/07 02:58:37;;;;;;;;;;;;;;;19.94;68.37;102216.31;7285096;19;152309;-52
2021/10/07 03:01:04;;;;;;;;;;;;;;;19.91;68.89;102213.22;7285844;19;152204;-52
2021/10/07 03:03:31;;;;;;;;;;;;;;;19.92;68.60;102217.72;7283084;19;153640;-52
2021/10/07 03:05:58;;;;;;;;;;;;;;;19.92;68.50;102218.56;7282909;19;152780;-52
2021/10/07 03:10:56;;;;;;;;;;;;;;;19.89;68.96;102218.28;7285102;19;153324;-52
2021/10/07 03:13:24;;;;;;;;;;;;;;;19.90;68.85;102220.78;7285975;19;151529;-52
2021/10/07 03:15:51;;;;;;;;;;;;;;;19.90;68.69;102208.72;7284895;19;152842;-51
2021/10/07 03:18:18;;;;;;;;;;;;;;;19.90;68.95;102223.59;7285106;19;154395;-51
2021/10/07 03:20:45;;;;;;;;;;;;;;;19.90;68.36;102217.97;7284551;19;152115;-52
2021/10/07 03:23:12;;;;;;;;;;;;;;;19.90;68.50;102225.56;7282006;19;153582;-52
2021/10/07 03:25:39;;;;;;;;;;;;;;;19.90;68.57;102225.56;7284889;19;153923;-52
2021/10/07 03:28:06;;;;;;;;;;;;;;;19.91;68.57;102230.91;7286173;19;151696;-52
2021/10/07 03:30:33;;;;;;;;;;;;;;;19.89;69.23;102233.16;7293288;19;153120;-52
2021/10/07 03:33:04;;;;;;;;;;;;;;;19.89;69.00;102229.50;7284196;19;151845;-52
2021/10/07 03:35:31;;;;;;;;;;;;;;;19.90;69.05;102228.34;7286071;19;152638;-52
2021/10/07 03:37:58;;;;;;;;;;;;;;;19.89;69.13;102230.34;7284423;19;154056;-52
2021/10/07 03:40:25;;;;;;;;;;;;;;;19.89;68.72;102233.16;7283452;19;151864;-51
2021/10/07 03:42:53;;;;;;;;;;;;;;;19.88;68.75;102239.88;7283753;19;153530;-52
2021/10/07 03:45:20;;;;;;;;;;;;;;;19.87;68.78;102240.97;7284030;19;154354;-52
2021/10/07 03:47:47;;;;;;;;;;;;;;;19.87;68.86;102232.56;7283598;19;151892;-52
2021/10/07 03:50:14;;;;;;;;;;;;;;;19.87;68.84;102238.19;7283465;19;153441;-51
2021/10/07 03:52:41;;;;;;;;;;;;;;;19.87;68.66;102243.78;7290037;19;153456;-52
2021/10/07 03:55:08;;;;;;;;;;;;;;;19.86;68.46;102239.28;7280914;19;152903;-52
2021/10/07 03:57:35;;;;;;;;;;;;;;;19.87;68.61;102249.41;7284076;19;153942;-52
2021/10/07 04:00:04;;;;;;;;;;;;;;;19.87;68.43;102248.53;7283909;19;151851;-52
2021/10/07 04:02:31;;;;;;;;;;;;;;;19.87;68.53;102248.53;7279847;19;152803;-52
2021/10/07 04:04:58;;;;;;;;;;;;;;;19.87;68.86;102245.75;7283840;19;154442;-52
2021/10/07 04:07:25;;;;;;;;;;;;;;;19.87;68.78;102251.34;7284586;19;152501;-52
2021/10/07 04:09:52;;;;;;;;;;;;;;;19.86;68.55;102250.50;7284709;19;153479;-51
2021/10/07 04:12:19;;;;;;;;;;;;;;;19.87;69.00;102252.19;7290952;19;154292;-52
2021/10/07 04:14:46;;;;;;;;;;;;;;;19.88;69.18;102250.25;7285769;19;153226;-51
2021/10/07 04:17:13;;;;;;;;;;;;;;;19.87;68.68;102260.63;7289911;19;152151;-51
2021/10/07 04:19:40;;;;;;;;;;;;;;;19.87;68.84;102259.75;7291407;19;151896;-51
2021/10/07 04:22:07;;;;;;;;;;;;;;;19.86;68.91;102264.53;7289937;19;153010;-52
2021/10/07 04:24:34;;;;;;;;;;;;;;;19.86;69.18;102272.94;7289829;19;153892;-52
2021/10/07 04:27:01;;;;;;;;;;;;;;;19.86;68.96;102270.13;7290741;19;152610;-51
2021/10/07 04:29:28;;;;;;;;;;;;;;;19.85;68.80;102274.06;7291071;19;153439;-52
2021/10/07 04:31:55;;;;;;;;;;;;;;;19.88;68.88;102275.47;7289581;19;153803;-52
2021/10/07 04:34:22;;;;;;;;;;;;;;;19.87;69.10;102274.63;7297287;19;151636;-51
2021/10/07 04:36:49;;;;;;;;;;;;;;;19.86;69.06;102280.50;7290211;19;153474;-51
2021/10/07 04:39:16;;;;;;;;;;;;;;;19.86;68.69;102272.94;7288213;19;152078;-51
2021/10/07 04:41:43;;;;;;;;;;;;;;;19.87;68.78;102276.59;7290785;19;152116;-51
2021/10/07 04:44:10;;;;;;;;;;;;;;;19.86;68.47;102274.91;7286121;19;152369;-51
2021/10/07 04:46:37;;;;;;;;;;;;;;;19.85;68.48;102279.66;7289962;19;151797;-51
2021/10/07 04:49:04;;;;;;;;;;;;;;;19.85;68.79;102278.84;7289646;19;153794;-52
2021/10/07 04:51:31;;;;;;;;;;;;;;;19.85;68.90;102279.66;7289026;19;152704;-51
2021/10/07 04:53:58;;;;;;;;;;;;;;;19.85;68.81;102281.66;7289896;19;152038;-51
2021/10/07 04:56:25;;;;;;;;;;;;;;;19.84;69.08;102282.75;7296311;19;153502;-52
2021/10/07 04:58:54;;;;;;;;;;;;;;;19.84;68.72;102279.94;7288550;19;151968;-52
2021/10/07 05:01:21;;;;;;;;;;;;;;;19.84;68.65;102277.16;7288920;19;152712;-51
2021/10/07 05:03:49;;;;;;;;;;;;;;;19.84;68.95;102288.38;7287165;19;154150;-52
2021/10/07 05:06:16;;;;;;;;;;;;;;;19.84;68.97;102294.81;7287359;19;152574;-52
2021/10/07 05:08:43;;;;;;;;;;;;;;;19.82;68.95;102285.81;7287806;19;155021;-52
2021/10/07 05:11:10;;;;;;;;;;;;;;;19.81;68.86;102286.94;7285766;19;153962;-52
2021/10/07 05:13:37;;;;;;;;;;;;;;;19.81;69.11;102298.16;7291281;19;151548;-52
2021/10/07 05:16:04;;;;;;;;;;;;;;;19.81;69.07;102289.72;7290389;19;152572;-52
2021/10/07 05:18:32;;;;;;;;;;;;;;;19.80;69.08;102285.28;7297177;19;155390;-52
2021/10/07 05:20:59;;;;;;;;;;;;;;;19.80;69.19;102284.41;7291099;19;151895;-52
2021/10/07 05:23:26;;;;;;;;;;;;;;;19.79;68.96;102280.75;7288155;19;154051;-52
2021/10/07 05:25:53;;;;;;;;;;;;;;;19.80;69.31;102287.22;7290590;19;151892;-51
2021/10/07 05:28:20;;;;;;;;;;;;;;;19.81;68.87;102292.53;7290551;19;151958;-52
2021/10/07 05:30:48;;;;;;;;;;;;;;;19.80;69.03;102290.88;7289218;19;153284;-51
2021/10/07 05:33:16;;;;;;;;;;;;;;;19.81;68.66;102291.69;7290743;19;151430;-52
2021/10/07 05:35:43;;;;;;;;;;;;;;;19.88;68.83;102295.13;7289490;19;153162;-52
2021/10/07 05:38:10;;;;;;;;;;;;;;;19.97;68.69;102299.94;7288442;19;153256;-51
2021/10/07 05:40:37;;;;;;;;;;;;;;;20.02;69.49;102301.09;7297933;19;151811;-51
2021/10/07 05:43:04;;;;;;;;;;;;;;;20.04;69.55;102296.88;7288181;19;153282;-51
2021/10/07 05:45:31;;;;;;;;;;;;;;;20.07;69.94;102295.50;7290592;19;151760;-52
2021/10/07 05:47:58;;;;;;;;;;;;;;;20.12;70.48;102287.97;7290451;19;152591;-51
2021/10/07 05:50:25;;;;;;;;;;;;;;;20.15;70.88;102293.03;7289390;19;153529;-51
2021/10/07 05:52:52;;;;;;;;;;;;;;;20.21;71.38;102291.09;7288904;19;152199;-52
2021/10/07 05:55:19;;;;;;;;;;;;;;;20.27;71.52;102293.63;7290300;19;153688;-52
2021/10/07 05:57:46;;;;;;;;;;;;;;;20.34;72.55;102296.22;7288686;19;153303;-51
2021/10/07 06:00:13;;;;;;;;;;;;;;;20.42;72.94;102292.88;7287443;19;152544;-51
2021/10/07 06:02:40;;;;;;;;;;;;;;;20.48;72.86;102294.59;7294253;19;153136;-53
2021/10/07 06:05:09;;;;;;;;;;;;;;;20.55;72.24;102283.94;7288267;19;151693;-52
2021/10/07 06:07:36;;;;;;;;;;;;;;;20.61;71.92;102296.91;7290042;19;151791;-51
2021/10/07 06:10:06;;;;;;;;;;;;;;;20.69;72.10;102287.06;7287095;19;152562;-51
2021/10/07 06:12:33;;;;;;;;;;;;;;;20.77;71.66;102289.34;7289613;19;151938;-51
2021/10/07 06:15:02;;;;;;;;;;;;;;;20.83;71.54;102294.69;7287504;19;152775;-53
2021/10/07 06:17:29;;;;;;;;;;;;;;;20.92;70.89;102296.97;7285896;19;153274;-52
2021/10/07 06:20:02;;;;;;;;;;;;;;;21.02;70.26;102302.59;7288926;19;151878;-52
2021/10/07 06:22:29;;;;;;;;;;;;;;;21.08;69.46;102295.84;7293504;19;152625;-52
2021/10/07 06:24:57;;;;;;;;;;;;;;;21.14;68.77;102298.44;7282543;19;151723;-52
2021/10/07 06:27:24;;;;;;;;;;;;;;;21.21;68.56;102298.16;7287259;19;152774;-52
2021/10/07 06:29:51;;;;;;;;;;;;;;;21.30;68.86;102293.66;7284294;19;153950;-51
2021/10/07 06:32:18;;;;;;;;;;;;;;;21.36;67.96;102303.78;7287231;19;152027;-50
2021/10/07 06:34:45;;;;;;;;;;;;;;;21.44;67.05;102300.38;7285165;19;152055;-51
2021/10/07 06:37:12;;;;;;;;;;;;;;;21.47;66.56;102304.63;7285717;19;153366;-51
2021/10/07 06:39:39;;;;;;;;;;;;;;;21.49;65.39;102305.16;7285112;19;151958;-51
2021/10/07 06:42:06;;;;;;;;;;;;;;;21.54;65.01;102306.00;7288337;19;152867;-51
2021/10/07 06:44:33;;;;;;;;;;;;;;;21.59;65.08;102302.34;7291275;19;153897;-52
2021/10/07 06:47:00;;;;;;;;;;;;;;;21.65;64.86;102296.47;7285713;19;152481;-52
2021/10/07 06:49:27;;;;;;;;;;;;;;;21.69;64.56;102299.53;7286087;19;151917;-52
2021/10/07 06:51:54;;;;;;;;;;;;;;;21.71;64.21;102300.94;7287029;19;151487;-52
2021/10/07 06:54:21;;;;;;;;;;;;;;;21.77;64.04;102298.97;7284948;19;153665;-51
2021/10/07 06:56:48;;;;;;;;;;;;;;;21.80;63.72;102297.56;7283543;19;153361;-52
2021/10/07 06:59:15;;;;;;;;;;;;;;;21.82;63.51;102296.13;7287390;19;151969;-51
2021/10/07 07:01:42;;;;;;;;;;;;;;;21.85;63.37;102301.19;7285487;19;153210;-52
2021/10/07 07:04:14;;;;;;;;;;;;;;;21.88;63.37;102297.81;7282996;19;154345;-51
2021/10/07 07:06:42;;;;;;;;;;;;;;;21.89;62.84;102304.28;7295072;19;152060;-52
2021/10/07 07:09:11;;;;;;;;;;;;;;;21.93;62.44;102303.47;7284099;19;153606;-51
2021/10/07 07:11:38;;;;;;;;;;;;;;;21.94;62.60;102295.88;7284336;19;151800;-51
2021/10/07 07:14:05;;;;;;;;;;;;;;;21.95;62.50;102301.19;7283842;19;154068;-51
2021/10/07 07:16:33;;;;;;;;;;;;;;;21.97;62.36;102307.41;7285539;19;154073;-51
2021/10/07 07:19:01;;;;;;;;;;;;;;;22.00;62.67;102304.00;7287904;19;151658;-53
2021/10/07 07:21:30;;;;;;;;;;;;;;;22.02;62.63;102310.22;7286997;19;151698;-51
2021/10/07 07:23:59;;;;;;;;;;;;;;;22.04;62.46;102301.44;7283185;19;153342;-51
2021/10/07 07:26:27;;;;;;;;;;;;;;;22.04;62.37;102309.91;7285100;19;151826;-51
2021/10/07 07:28:55;;;;;;;;;;;;;;;22.05;62.23;102306.81;7294526;19;152833;-51
2021/10/07 07:31:23;;;;;;;;;;;;;;;22.07;62.15;102317.78;7286921;19;151797;-51
2021/10/07 07:33:51;;;;;;;;;;;;;;;22.07;62.25;102320.59;7284696;19;154213;-51
2021/10/07 07:36:18;;;;;;;;;;;;;;;22.07;62.28;102320.59;7282890;19;154332;-51
2021/10/07 07:38:46;;;;;;;;;;;;;;;22.05;62.07;102322.84;7284341;19;152559;-52
2021/10/07 07:41:33;;;;;;;;;;;;;;;22.05;62.06;102334.09;7283892;19;154627;-51
2021/10/07 07:44:00;;;;;;;;;;;;;;;22.03;61.83;102327.94;7280622;19;153745;-52
2021/10/07 07:46:27;;;;;;;;;;;;;;;22.04;61.99;102332.41;7284330;19;151826;-51
2021/10/07 07:48:54;;;;;;;;;;;;;;;22.03;61.74;102336.38;7284999;19;152701;-51
2021/10/07 07:51:21;;;;;;;;;;;;;;;22.02;61.99;102329.06;7289858;19;154479;-52
2021/10/07 07:53:49;;;;;;;;;;;;;;;22.01;61.73;102330.19;7285326;19;153396;-51
2021/10/07 07:56:16;;;;;;;;;;;;;;;22.00;62.14;102339.75;7284821;19;153928;-51
2021/10/07 07:58:43;;;;;;;;;;;;;;;22.00;62.14;102336.94;7284597;19;152293;-51
2021/10/07 08:01:10;;;;;;;;;;;;;;;22.00;61.99;102342.56;7282512;19;152255;-52
2021/10/07 08:03:37;;;;;;;;;;;;;;;22.01;61.61;102344.25;7284270;19;153140;-51
2021/10/07 08:06:04;;;;;;;;;;;;;;;22.00;61.92;102348.19;7281940;19;151914;-51
2021/10/07 08:08:31;;;;;;;;;;;;;;;22.00;61.73;102343.41;7282828;19;152722;-51
2021/10/07 08:10:58;;;;;;;;;;;;;;;22.01;61.53;102352.69;7274864;19;153806;-51
2021/10/07 08:13:25;;;;;;;;;;;;;;;22.02;61.80;102345.94;7285840;19;152807;-51
2021/10/07 08:15:52;;;;;;;;;;;;;;;22.01;61.47;102350.72;7281556;19;153324;-52
2021/10/07 08:18:19;;;;;;;;;;;;;;;22.02;61.75;102355.25;7282301;19;152108;-51
2021/10/07 08:20:46;;;;;;;;;;;;;;;22.02;61.50;102351.56;7281764;19;152872;-51
2021/10/07 08:23:14;;;;;;;;;;;;;;;22.00;61.89;102365.06;7280791;19;154112;-51
2021/10/07 08:25:41;;;;;;;;;;;;;;;21.99;61.43;102355.78;7278983;19;151757;-51
2021/10/07 08:28:09;;;;;;;;;;;;;;;21.99;61.44;102363.38;7283996;19;153717;-51
2021/10/07 08:30:37;;;;;;;;;;;;;;;21.97;61.45;102366.50;7280876;19;154791;-51
2021/10/07 08:33:04;;;;;;;;;;;;;;;21.95;61.75;102367.91;7287760;19;151907;-52
2021/10/07 08:35:32;;;;;;;;;;;;;;;21.95;61.62;102368.75;7282515;19;152285;-51
2021/10/07 08:37:59;;;;;;;;;;;;;;;21.92;61.57;102363.66;7283599;19;151833;-51
2021/10/07 08:40:27;;;;;;;;;;;;;;;21.92;61.98;102360.00;7281298;19;152048;-51
2021/10/07 08:42:54;;;;;;;;;;;;;;;21.92;61.57;102360.00;7280444;19;153463;-51
2021/10/07 08:45:27;;;;;;;;;;;;;;;21.91;61.98;102366.75;7280476;19;151537;-51
2021/10/07 08:47:55;;;;;;;;;;;;;;;21.89;61.78;102366.19;7281555;19;153149;-52
2021/10/07 08:50:22;;;;;;;;;;;;;;;21.87;61.74;102362.81;7279757;19;153377;-51
2021/10/07 08:52:49;;;;;;;;;;;;;;;21.84;62.05;102369.88;7282454;19;152497;-51
2021/10/07 08:55:17;;;;;;;;;;;;;;;21.81;62.45;102358.31;7287028;19;153741;-50
2021/10/07 08:57:44;;;;;;;;;;;;;;;21.79;62.35;102355.81;7281221;19;152093;-51
2021/10/07 09:00:12;;;;;;;;;;;;;;;21.77;62.67;102357.19;7282320;19;152637;-51
2021/10/07 09:02:40;;;;;;;;;;;;;;;21.76;62.41;102344.28;7284728;19;154133;-51
2021/10/07 09:05:09;;;;;;;;;;;;;;;21.73;62.69;102348.47;7287746;19;152323;-51
2021/10/07 09:07:51;;;;;;;;;;;;;;;21.72;62.80;102353.25;7289145;19;152659;-51
2021/10/07 09:10:18;;;;;;;;;;;;;;;21.70;62.71;102355.53;7285598;19;154124;-51
2021/10/07 09:12:49;;;;;;;;;;;;;;;21.70;62.86;102363.97;7285138;19;152127;-51
2021/10/07 09:15:16;;;;;;;;;;;;;;;21.67;62.60;102356.06;7286195;19;152731;-52
2021/10/07 09:17:50;;;;;;;;;;;;;;;21.65;62.92;102363.13;7294806;19;153413;-51
2021/10/07 09:20:30;;;;;;;;;;;;;;;21.65;63.12;102363.13;7286365;19;151642;-52
2021/10/07 09:23:04;;;;;;;;;;;;;;;21.61;62.90;102362.84;7287169;19;153726;-51
2021/10/07 09:25:31;;;;;;;;;;;;;;;21.59;63.46;102358.59;7285274;19;152758;-51
2021/10/07 09:28:02;;;;;;;;;;;;;;;21.57;63.24;102366.50;7287412;19;152818;-51
2021/10/07 09:30:29;;;;;;;;;;;;;;;21.54;63.19;102367.03;7287407;19;154193;-52
2021/10/07 09:32:59;;;;;;;;;;;;;;;21.52;63.60;102370.16;7287886;19;151791;-51
2021/10/07 09:35:36;;;;;;;;;;;;;;;21.51;63.90;102360.03;7287976;19;152595;-52
2021/10/07 09:38:05;;;;;;;;;;;;;;;21.48;63.90;102366.22;7287121;19;152369;-51
2021/10/07 09:40:32;;;;;;;;;;;;;;;21.47;63.47;102372.97;7294325;19;151895;-52
2021/10/07 09:43:01;;;;;;;;;;;;;;;21.45;64.09;102375.19;7284590;19;154623;-51
2021/10/07 09:45:30;;;;;;;;;;;;;;;21.44;63.83;102373.50;7285080;19;151939;-52
2021/10/07 09:48:00;;;;;;;;;;;;;;;21.43;64.15;102380.28;7285161;19;152825;-51
2021/10/07 09:50:28;;;;;;;;;;;;;;;21.42;63.73;102381.38;7286527;19;153675;-51
2021/10/07 09:52:59;;;;;;;;;;;;;;;21.43;64.07;102377.47;7286099;19;152155;-51
2021/10/07 09:55:28;;;;;;;;;;;;;;;21.39;64.01;102379.16;7287103;19;153483;-51
2021/10/07 09:57:57;;;;;;;;;;;;;;;21.40;63.74;102377.16;7283196;19;154012;-52
2021/10/07 10:00:27;;;;;;;;;;;;;;;21.38;63.93;102373.78;7288163;19;151974;-51
2021/10/07 10:02:55;;;;;;;;;;;;;;;21.37;63.86;102369.28;7292814;19;151506;-51
2021/10/07 10:05:24;;;;;;;;;;;;;;;21.36;64.21;102378.84;7285284;19;152067;-52
2021/10/07 10:07:51;;;;;;;;;;;;;;;21.36;64.13;102373.22;7285273;19;152713;-51
2021/10/07 10:10:18;;;;;;;;;;;;;;;21.37;64.29;102374.91;7285587;19;154338;-52
2021/10/07 10:12:45;;;;;;;;;;;;;;;21.35;64.35;102374.38;7282108;19;152647;-52
2021/10/07 10:15:13;;;;;;;;;;;;;;;21.36;63.94;102376.03;7281940;19;152405;-51
2021/10/07 10:17:40;;;;;;;;;;;;;;;21.32;64.14;102375.75;7284186;19;153557;-51
2021/10/07 10:20:10;;;;;;;;;;;;;;;21.33;64.33;102383.06;7286983;19;152208;-51
2021/10/07 10:22:40;;;;;;;;;;;;;;;21.30;64.25;102383.63;7288012;19;152807;-51
2021/10/07 10:25:08;;;;;;;;;;;;;;;21.28;64.63;102383.91;7292435;19;152365;-52
2021/10/07 10:27:38;;;;;;;;;;;;;;;21.29;64.48;102393.19;7286049;19;152413;-51
2021/10/07 10:30:08;;;;;;;;;;;;;;;21.29;64.70;102387.56;7285401;19;153272;-52
2021/10/07 10:32:38;;;;;;;;;;;;;;;21.30;64.06;102383.63;7287219;19;151590;-52
2021/10/07 10:35:25;;;;;;;;;;;;;;;21.28;64.28;102388.69;7286151;19;153478;-52
2021/10/07 10:37:56;;;;;;;;;;;;;;;21.28;64.20;102386.72;7281997;19;154830;-51
2021/10/07 10:40:23;;;;;;;;;;;;;;;21.24;64.84;102391.22;7287345;19;152156;-51
2021/10/07 10:43:10;;;;;;;;;;;;;;;21.26;64.29;102386.13;7286812;19;153281;-51
2021/10/07 10:45:44;;;;;;;;;;;;;;;21.24;64.38;102384.75;7289950;19;153515;-51
2021/10/07 10:48:11;;;;;;;;;;;;;;;21.23;64.64;102378.25;7284761;19;152373;-52
2021/10/07 10:50:38;;;;;;;;;;;;;;;21.27;64.08;102386.97;7284734;19;153260;-51
2021/10/07 10:53:20;;;;;;;;;;;;;;;21.22;64.41;102385.00;7287182;19;151734;-51
2021/10/07 10:55:49;;;;;;;;;;;;;;;21.24;64.32;102384.75;7285709;19;152720;-52
2021/10/07 10:58:17;;;;;;;;;;;;;;;21.22;64.34;102393.44;7282554;19;152200;-52
2021/10/07 11:00:44;;;;;;;;;;;;;;;21.20;64.84;102390.06;7285397;19;152858;-51
2021/10/07 11:03:13;;;;;;;;;;;;;;;21.20;65.00;102392.03;7283763;19;153125;-51
2021/10/07 11:05:44;;;;;;;;;;;;;;;21.19;64.65;102385.56;7280489;19;153417;-52
2021/10/07 11:08:12;;;;;;;;;;;;;;;21.19;64.82;102398.78;7294287;19;151642;-51
2021/10/07 11:10:59;;;;;;;;;;;;;;;21.18;65.07;102397.94;7283379;19;155553;-52
2021/10/07 11:13:28;;;;;;;;;;;;;;;21.17;64.72;102395.38;7282398;19;151762;-52
2021/10/07 11:16:00;;;;;;;;;;;;;;;21.17;64.52;102398.19;7280469;19;153508;-51
2021/10/07 11:18:31;;;;;;;;;;;;;;;21.14;64.97;102402.41;7283705;19;153528;-52
2021/10/07 11:21:02;;;;;;;;;;;;;;;21.15;64.88;102398.50;7284797;19;151616;-51
2021/10/07 11:23:32;;;;;;;;;;;;;;;21.15;64.79;102406.06;7282891;19;151859;-51
2021/10/07 11:26:00;;;;;;;;;;;;;;;21.14;64.74;102396.81;7282776;19;153470;-52
2021/10/07 11:28:28;;;;;;;;;;;;;;;21.14;65.07;102396.81;7282550;19;151781;-52
2021/10/07 11:30:58;;;;;;;;;;;;;;;21.14;65.27;102391.19;7290205;19;152716;-51
2021/10/07 11:33:25;;;;;;;;;;;;;;;21.12;65.24;102387.75;7283822;19;152243;-52
2021/10/07 11:35:55;;;;;;;;;;;;;;;21.11;64.85;102386.09;7285629;19;152819;-52
2021/10/07 11:38:22;;;;;;;;;;;;;;;21.10;65.13;102378.78;7283796;19;154303;-51
2021/10/07 11:40:52;;;;;;;;;;;;;;;21.12;64.92;102387.75;7283568;19;151491;-51
2021/10/07 11:43:20;;;;;;;;;;;;;;;21.11;64.79;102388.06;7284394;19;152041;-52
2021/10/07 11:45:49;;;;;;;;;;;;;;;21.10;65.28;102381.59;7281553;19;154127;-51
2021/10/07 11:48:16;;;;;;;;;;;;;;;21.10;65.43;102381.59;7283370;19;152054;-51
2021/10/07 11:50:45;;;;;;;;;;;;;;;21.11;65.03;102388.06;7283049;19;153453;-52
2021/10/07 11:53:14;;;;;;;;;;;;;;;21.10;65.00;102377.94;7290401;19;153408;-51
2021/10/07 11:55:43;;;;;;;;;;;;;;;21.10;65.29;102389.16;7283535;19;152280;-52
2021/10/07 11:58:10;;;;;;;;;;;;;;;21.09;65.34;102381.84;7283344;19;153469;-51
2021/10/07 12:00:39;;;;;;;;;;;;;;;21.08;65.56;102382.97;7280643;19;152123;-52
2021/10/07 12:03:07;;;;;;;;;;;;;;;21.08;65.39;102383.81;7284560;19;152593;-51
2021/10/07 12:05:38;;;;;;;;;;;;;;;21.08;65.47;102394.22;7276878;19;153801;-51
2021/10/07 12:08:07;;;;;;;;;;;;;;;21.07;65.79;102393.38;7281706;19;152408;-51
2021/10/07 12:10:35;;;;;;;;;;;;;;;21.05;65.70;102390.00;7283758;19;153506;-51
2021/10/07 12:13:05;;;;;;;;;;;;;;;21.05;65.91;102395.63;7282179;19;153940;-51
2021/10/07 12:15:32;;;;;;;;;;;;;;;21.01;65.85;102393.63;7290649;19;154577;-51
2021/10/07 12:17:59;;;;;;;;;;;;;;;21.04;66.05;102393.91;7276988;19;153974;-52
2021/10/07 12:20:26;;;;;;;;;;;;;;;21.03;66.15;102388.59;7284642;19;152131;-52
2021/10/07 12:22:58;;;;;;;;;;;;;;;21.02;65.62;102390.56;7281284;19;152721;-51
2021/10/07 12:25:26;;;;;;;;;;;;;;;21.02;65.74;102387.75;7279239;19;152393;-51
2021/10/07 12:28:00;;;;;;;;;;;;;;;21.04;65.70;102395.88;7283266;19;152190;-52
2021/10/07 12:30:27;;;;;;;;;;;;;;;21.00;65.89;102394.75;7283749;19;153490;-52
2021/10/07 12:33:01;;;;;;;;;;;;;;;21.01;66.01;102390.81;7280594;19;154047;-52
2021/10/07 12:35:28;;;;;;;;;;;;;;;21.00;65.88;102386.31;7288088;19;151958;-52
2021/10/07 12:37:56;;;;;;;;;;;;;;;20.98;66.27;102381.00;7288385;19;153229;-52
2021/10/07 12:40:26;;;;;;;;;;;;;;;20.99;65.98;102381.81;7289334;19;151961;-51
2021/10/07 12:42:54;;;;;;;;;;;;;;;20.96;66.30;102386.03;7288977;19;152304;-52